sensor_id;sensor_type;location;lat;lon;timestamp;P1;durP1;ratioP1;P2;durP2;ratioP2
17997;SDS011;9124;48.144;17.098;2024-03-02T00:02:53;60.38;;;44.55;;
17997;SDS011;9124;48.144;17.098;2024-03-02T00:07:20;54.88;;;42.92;;
17997;SDS011;9124;48.144;17.098;2024-03-02T00:11:46;51.60;;;41.15;;
17997;SDS011;9124;48.144;17.098;2024-03-02T00:16:12;56.63;;;40.17;;
17997;SDS011;9124;48.144;17.098;2024-03-02T00:20:39;56.45;;;41.97;;
17997;SDS011;9124;48.144;17.098;2024-03-02T00:25:08;61.08;;;46.03;;
17997;SDS011;9124;48.144;17.098;2024-03-02T00:29:36;63.78;;;45.35;;
17997;SDS011;9124;48.144;17.098;2024-03-02T00:34:03;58.80;;;44.83;;
17997;SDS011;9124;48.144;17.098;2024-03-02T00:38:31;57.08;;;41.40;;
17997;SDS011;9124;48.144;17.098;2024-03-02T00:43:02;60.40;;;44.65;;
17997;SDS011;9124;48.144;17.098;2024-03-02T00:47:29;65.75;;;45.78;;
17997;SDS011;9124;48.144;17.098;2024-03-02T00:51:55;73.07;;;52.20;;
17997;SDS011;9124;48.144;17.098;2024-03-02T00:56:22;68.90;;;46.67;;
17997;SDS011;9124;48.144;17.098;2024-03-02T01:00:49;64.45;;;44.25;;
17997;SDS011;9124;48.144;17.098;2024-03-02T01:05:17;59.35;;;42.53;;
17997;SDS011;9124;48.144;17.098;2024-03-02T01:09:43;78.28;;;50.85;;
17997;SDS011;9124;48.144;17.098;2024-03-02T01:14:10;61.05;;;43.47;;
17997;SDS011;9124;48.144;17.098;2024-03-02T01:18:37;63.05;;;43.80;;
17997;SDS011;9124;48.144;17.098;2024-03-02T01:23:06;75.80;;;49.45;;
17997;SDS011;9124;48.144;17.098;2024-03-02T01:27:32;65.30;;;45.95;;
17997;SDS011;9124;48.144;17.098;2024-03-02T01:32:01;63.58;;;47.85;;
17997;SDS011;9124;48.144;17.098;2024-03-02T01:36:28;65.20;;;46.08;;
17997;SDS011;9124;48.144;17.098;2024-03-02T01:40:54;70.20;;;49.50;;
17997;SDS011;9124;48.144;17.098;2024-03-02T01:45:22;66.50;;;48.58;;
17997;SDS011;9124;48.144;17.098;2024-03-02T01:49:49;68.05;;;49.33;;
17997;SDS011;9124;48.144;17.098;2024-03-02T01:54:16;78.65;;;50.60;;
17997;SDS011;9124;48.144;17.098;2024-03-02T01:58:44;77.85;;;53.50;;
17997;SDS011;9124;48.144;17.098;2024-03-02T02:03:11;86.82;;;53.67;;
17997;SDS011;9124;48.144;17.098;2024-03-02T02:07:38;81.32;;;53.33;;
17997;SDS011;9124;48.144;17.098;2024-03-02T02:12:05;73.28;;;49.75;;
17997;SDS011;9124;48.144;17.098;2024-03-02T02:16:35;74.32;;;50.67;;
17997;SDS011;9124;48.144;17.098;2024-03-02T02:21:02;73.80;;;51.28;;
17997;SDS011;9124;48.144;17.098;2024-03-02T02:25:29;83.53;;;50.85;;
17997;SDS011;9124;48.144;17.098;2024-03-02T02:29:55;85.38;;;56.20;;
17997;SDS011;9124;48.144;17.098;2024-03-02T02:34:23;92.80;;;58.58;;
17997;SDS011;9124;48.144;17.098;2024-03-02T02:38:49;100.97;;;60.45;;
17997;SDS011;9124;48.144;17.098;2024-03-02T02:43:15;102.38;;;61.78;;
17997;SDS011;9124;48.144;17.098;2024-03-02T02:47:42;89.90;;;59.70;;
17997;SDS011;9124;48.144;17.098;2024-03-02T02:52:09;90.93;;;55.97;;
17997;SDS011;9124;48.144;17.098;2024-03-02T02:56:36;94.15;;;57.47;;
17997;SDS011;9124;48.144;17.098;2024-03-02T03:01:02;96.30;;;57.78;;
17997;SDS011;9124;48.144;17.098;2024-03-02T03:05:29;88.13;;;54.05;;
17997;SDS011;9124;48.144;17.098;2024-03-02T03:09:55;97.10;;;58.67;;
17997;SDS011;9124;48.144;17.098;2024-03-02T03:14:23;91.97;;;54.90;;
17997;SDS011;9124;48.144;17.098;2024-03-02T03:18:50;98.45;;;56.83;;
17997;SDS011;9124;48.144;17.098;2024-03-02T03:23:17;92.40;;;57.30;;
17997;SDS011;9124;48.144;17.098;2024-03-02T03:27:43;94.97;;;55.75;;
17997;SDS011;9124;48.144;17.098;2024-03-02T03:32:12;104.93;;;58.67;;
17997;SDS011;9124;48.144;17.098;2024-03-02T03:36:38;96.28;;;57.60;;
17997;SDS011;9124;48.144;17.098;2024-03-02T03:41:05;97.35;;;57.80;;
17997;SDS011;9124;48.144;17.098;2024-03-02T03:45:31;103.60;;;62.78;;
17997;SDS011;9124;48.144;17.098;2024-03-02T03:49:57;118.95;;;66.28;;
17997;SDS011;9124;48.144;17.098;2024-03-02T03:54:23;114.85;;;69.45;;
17997;SDS011;9124;48.144;17.098;2024-03-02T03:58:50;128.95;;;70.70;;
17997;SDS011;9124;48.144;17.098;2024-03-02T04:03:16;117.13;;;67.75;;
17997;SDS011;9124;48.144;17.098;2024-03-02T04:07:42;126.78;;;69.65;;
17997;SDS011;9124;48.144;17.098;2024-03-02T04:12:08;137.68;;;72.90;;
17997;SDS011;9124;48.144;17.098;2024-03-02T04:16:35;130.73;;;68.80;;
17997;SDS011;9124;48.144;17.098;2024-03-02T04:21:01;107.50;;;62.28;;
17997;SDS011;9124;48.144;17.098;2024-03-02T04:25:28;83.43;;;52.95;;
17997;SDS011;9124;48.144;17.098;2024-03-02T04:29:54;71.35;;;49.28;;
17997;SDS011;9124;48.144;17.098;2024-03-02T04:34:21;72.38;;;46.38;;
17997;SDS011;9124;48.144;17.098;2024-03-02T04:38:47;73.38;;;47.33;;
17997;SDS011;9124;48.144;17.098;2024-03-02T04:43:14;70.40;;;49.20;;
17997;SDS011;9124;48.144;17.098;2024-03-02T04:47:42;83.00;;;48.60;;
17997;SDS011;9124;48.144;17.098;2024-03-02T04:52:08;71.63;;;48.33;;
17997;SDS011;9124;48.144;17.098;2024-03-02T04:56:35;81.20;;;51.10;;
17997;SDS011;9124;48.144;17.098;2024-03-02T05:01:30;74.22;;;49.63;;
17997;SDS011;9124;48.144;17.098;2024-03-02T05:05:58;71.63;;;49.22;;
17997;SDS011;9124;48.144;17.098;2024-03-02T05:10:24;81.25;;;51.15;;
17997;SDS011;9124;48.144;17.098;2024-03-02T05:14:53;77.13;;;49.05;;
17997;SDS011;9124;48.144;17.098;2024-03-02T05:19:19;74.15;;;48.67;;
17997;SDS011;9124;48.144;17.098;2024-03-02T05:23:46;69.30;;;49.13;;
17997;SDS011;9124;48.144;17.098;2024-03-02T05:28:12;83.38;;;53.35;;
17997;SDS011;9124;48.144;17.098;2024-03-02T05:32:38;94.60;;;57.92;;
17997;SDS011;9124;48.144;17.098;2024-03-02T05:37:04;80.95;;;53.13;;
17997;SDS011;9124;48.144;17.098;2024-03-02T05:41:31;84.03;;;54.45;;
17997;SDS011;9124;48.144;17.098;2024-03-02T05:45:57;88.80;;;55.50;;
17997;SDS011;9124;48.144;17.098;2024-03-02T05:50:24;87.30;;;52.17;;
17997;SDS011;9124;48.144;17.098;2024-03-02T05:54:50;80.65;;;50.08;;
17997;SDS011;9124;48.144;17.098;2024-03-02T05:59:19;67.65;;;47.30;;
17997;SDS011;9124;48.144;17.098;2024-03-02T06:03:45;65.68;;;46.70;;
17997;SDS011;9124;48.144;17.098;2024-03-02T06:08:12;62.58;;;45.67;;
17997;SDS011;9124;48.144;17.098;2024-03-02T06:12:38;65.57;;;43.85;;
17997;SDS011;9124;48.144;17.098;2024-03-02T06:17:04;63.17;;;43.40;;
17997;SDS011;9124;48.144;17.098;2024-03-02T06:21:31;60.78;;;44.60;;
17997;SDS011;9124;48.144;17.098;2024-03-02T06:25:57;66.80;;;45.03;;
17997;SDS011;9124;48.144;17.098;2024-03-02T06:30:23;66.47;;;43.15;;
17997;SDS011;9124;48.144;17.098;2024-03-02T06:34:52;63.42;;;42.50;;
17997;SDS011;9124;48.144;17.098;2024-03-02T06:39:19;55.67;;;40.28;;
17997;SDS011;9124;48.144;17.098;2024-03-02T06:43:46;66.95;;;45.90;;
17997;SDS011;9124;48.144;17.098;2024-03-02T06:48:13;61.47;;;43.03;;
17997;SDS011;9124;48.144;17.098;2024-03-02T06:52:46;63.22;;;44.03;;
17997;SDS011;9124;48.144;17.098;2024-03-02T06:57:12;65.10;;;44.95;;
17997;SDS011;9124;48.144;17.098;2024-03-02T07:01:40;62.92;;;44.28;;
17997;SDS011;9124;48.144;17.098;2024-03-02T07:06:07;57.25;;;41.60;;
17997;SDS011;9124;48.144;17.098;2024-03-02T07:10:36;64.78;;;44.13;;
17997;SDS011;9124;48.144;17.098;2024-03-02T07:15:02;72.03;;;48.22;;
17997;SDS011;9124;48.144;17.098;2024-03-02T07:19:30;59.88;;;42.35;;
17997;SDS011;9124;48.144;17.098;2024-03-02T07:23:56;60.17;;;40.47;;
17997;SDS011;9124;48.144;17.098;2024-03-02T07:28:23;50.22;;;37.58;;
17997;SDS011;9124;48.144;17.098;2024-03-02T07:32:52;53.78;;;38.08;;
17997;SDS011;9124;48.144;17.098;2024-03-02T07:37:19;58.83;;;42.00;;
17997;SDS011;9124;48.144;17.098;2024-03-02T07:41:46;70.78;;;45.58;;
17997;SDS011;9124;48.144;17.098;2024-03-02T07:46:12;58.40;;;40.67;;
17997;SDS011;9124;48.144;17.098;2024-03-02T07:50:39;58.60;;;40.65;;
17997;SDS011;9124;48.144;17.098;2024-03-02T07:55:07;57.65;;;42.83;;
17997;SDS011;9124;48.144;17.098;2024-03-02T07:59:34;64.25;;;41.10;;
17997;SDS011;9124;48.144;17.098;2024-03-02T08:04:00;66.20;;;42.75;;
17997;SDS011;9124;48.144;17.098;2024-03-02T08:08:33;56.17;;;42.70;;
17997;SDS011;9124;48.144;17.098;2024-03-02T08:13:00;55.38;;;41.97;;
17997;SDS011;9124;48.144;17.098;2024-03-02T08:17:26;64.20;;;43.42;;
17997;SDS011;9124;48.144;17.098;2024-03-02T08:21:52;62.20;;;44.15;;
17997;SDS011;9124;48.144;17.098;2024-03-02T08:26:21;67.30;;;46.55;;
17997;SDS011;9124;48.144;17.098;2024-03-02T08:30:47;66.35;;;47.75;;
17997;SDS011;9124;48.144;17.098;2024-03-02T08:35:16;65.03;;;45.00;;
17997;SDS011;9124;48.144;17.098;2024-03-02T08:39:42;57.58;;;41.47;;
17997;SDS011;9124;48.144;17.098;2024-03-02T08:44:11;56.83;;;40.88;;
17997;SDS011;9124;48.144;17.098;2024-03-02T08:48:38;50.92;;;40.75;;
17997;SDS011;9124;48.144;17.098;2024-03-02T08:53:06;42.45;;;37.08;;
17997;SDS011;9124;48.144;17.098;2024-03-02T08:57:33;45.85;;;36.92;;
17997;SDS011;9124;48.144;17.098;2024-03-02T09:01:59;47.08;;;38.60;;
17997;SDS011;9124;48.144;17.098;2024-03-02T09:06:26;42.78;;;38.13;;
17997;SDS011;9124;48.144;17.098;2024-03-02T09:10:53;47.88;;;37.55;;
17997;SDS011;9124;48.144;17.098;2024-03-02T09:15:22;41.67;;;36.25;;
17997;SDS011;9124;48.144;17.098;2024-03-02T09:19:48;37.25;;;33.28;;
17997;SDS011;9124;48.144;17.098;2024-03-02T09:24:18;37.63;;;33.30;;
17997;SDS011;9124;48.144;17.098;2024-03-02T09:28:44;37.30;;;33.30;;
17997;SDS011;9124;48.144;17.098;2024-03-02T09:33:11;36.53;;;32.58;;
17997;SDS011;9124;48.144;17.098;2024-03-02T09:37:37;33.20;;;29.83;;
17997;SDS011;9124;48.144;17.098;2024-03-02T09:42:03;32.00;;;28.67;;
17997;SDS011;9124;48.144;17.098;2024-03-02T09:46:30;34.78;;;31.33;;
17997;SDS011;9124;48.144;17.098;2024-03-02T09:50:59;34.08;;;30.63;;
17997;SDS011;9124;48.144;17.098;2024-03-02T09:55:29;42.17;;;34.20;;
17997;SDS011;9124;48.144;17.098;2024-03-02T09:59:56;38.30;;;34.53;;
17997;SDS011;9124;48.144;17.098;2024-03-02T10:04:23;41.00;;;33.30;;
17997;SDS011;9124;48.144;17.098;2024-03-02T10:08:54;37.13;;;33.33;;
17997;SDS011;9124;48.144;17.098;2024-03-02T10:13:21;40.72;;;35.03;;
17997;SDS011;9124;48.144;17.098;2024-03-02T10:17:51;44.30;;;36.13;;
17997;SDS011;9124;48.144;17.098;2024-03-02T10:22:17;40.13;;;34.55;;
17997;SDS011;9124;48.144;17.098;2024-03-02T10:26:44;40.17;;;33.83;;
17997;SDS011;9124;48.144;17.098;2024-03-02T10:31:11;40.38;;;34.67;;
17997;SDS011;9124;48.144;17.098;2024-03-02T10:35:38;42.20;;;36.25;;
17997;SDS011;9124;48.144;17.098;2024-03-02T10:40:06;58.03;;;37.92;;
17997;SDS011;9124;48.144;17.098;2024-03-02T10:44:34;41.20;;;36.30;;
17997;SDS011;9124;48.144;17.098;2024-03-02T10:49:00;47.53;;;34.75;;
17997;SDS011;9124;48.144;17.098;2024-03-02T10:53:29;44.90;;;35.38;;
17997;SDS011;9124;48.144;17.098;2024-03-02T10:57:56;42.47;;;34.45;;
17997;SDS011;9124;48.144;17.098;2024-03-02T11:02:27;43.83;;;33.30;;
17997;SDS011;9124;48.144;17.098;2024-03-02T11:07:01;43.60;;;36.65;;
17997;SDS011;9124;48.144;17.098;2024-03-02T11:11:30;37.28;;;32.53;;
17997;SDS011;9124;48.144;17.098;2024-03-02T11:16:05;47.25;;;38.33;;
17997;SDS011;9124;48.144;17.098;2024-03-02T11:20:38;46.05;;;39.80;;
17997;SDS011;9124;48.144;17.098;2024-03-02T11:25:22;55.00;;;41.92;;
17997;SDS011;9124;48.144;17.098;2024-03-02T11:29:52;50.15;;;39.92;;
17997;SDS011;9124;48.144;17.098;2024-03-02T11:34:41;53.28;;;42.65;;
17997;SDS011;9124;48.144;17.098;2024-03-02T11:39:10;57.38;;;43.45;;
17997;SDS011;9124;48.144;17.098;2024-03-02T11:43:37;58.38;;;45.00;;
17997;SDS011;9124;48.144;17.098;2024-03-02T11:48:10;56.25;;;45.55;;
17997;SDS011;9124;48.144;17.098;2024-03-02T11:52:40;56.17;;;45.85;;
17997;SDS011;9124;48.144;17.098;2024-03-02T11:57:08;61.72;;;46.08;;
17997;SDS011;9124;48.144;17.098;2024-03-02T12:01:35;59.22;;;42.63;;
17997;SDS011;9124;48.144;17.098;2024-03-02T12:06:01;61.28;;;46.75;;
17997;SDS011;9124;48.144;17.098;2024-03-02T12:10:29;61.63;;;46.97;;
17997;SDS011;9124;48.144;17.098;2024-03-02T12:14:55;65.78;;;47.53;;
17997;SDS011;9124;48.144;17.098;2024-03-02T12:19:25;62.90;;;47.22;;
17997;SDS011;9124;48.144;17.098;2024-03-02T12:23:52;60.90;;;48.30;;
17997;SDS011;9124;48.144;17.098;2024-03-02T12:28:19;70.03;;;48.83;;
17997;SDS011;9124;48.144;17.098;2024-03-02T12:32:45;64.53;;;49.33;;
17997;SDS011;9124;48.144;17.098;2024-03-02T12:37:13;62.28;;;48.10;;
17997;SDS011;9124;48.144;17.098;2024-03-02T12:41:40;60.60;;;46.92;;
17997;SDS011;9124;48.144;17.098;2024-03-02T12:46:09;61.47;;;47.05;;
17997;SDS011;9124;48.144;17.098;2024-03-02T12:50:36;61.55;;;46.22;;
17997;SDS011;9124;48.144;17.098;2024-03-02T12:55:04;62.10;;;48.70;;
17997;SDS011;9124;48.144;17.098;2024-03-02T12:59:31;58.05;;;46.03;;
17997;SDS011;9124;48.144;17.098;2024-03-02T13:03:57;53.35;;;42.03;;
17997;SDS011;9124;48.144;17.098;2024-03-02T13:08:25;52.30;;;38.47;;
17997;SDS011;9124;48.144;17.098;2024-03-02T13:12:51;47.50;;;38.83;;
17997;SDS011;9124;48.144;17.098;2024-03-02T13:17:19;52.88;;;41.90;;
17997;SDS011;9124;48.144;17.098;2024-03-02T13:21:45;48.53;;;41.08;;
17997;SDS011;9124;48.144;17.098;2024-03-02T13:26:12;59.95;;;41.88;;
17997;SDS011;9124;48.144;17.098;2024-03-02T13:30:39;56.75;;;41.17;;
17997;SDS011;9124;48.144;17.098;2024-03-02T13:35:05;46.67;;;35.78;;
17997;SDS011;9124;48.144;17.098;2024-03-02T13:39:32;36.97;;;32.88;;
17997;SDS011;9124;48.144;17.098;2024-03-02T13:44:00;42.40;;;33.42;;
17997;SDS011;9124;48.144;17.098;2024-03-02T13:48:27;36.92;;;31.88;;
17997;SDS011;9124;48.144;17.098;2024-03-02T13:52:56;42.13;;;35.03;;
17997;SDS011;9124;48.144;17.098;2024-03-02T13:57:22;38.05;;;32.92;;
17997;SDS011;9124;48.144;17.098;2024-03-02T14:01:49;32.42;;;28.92;;
17997;SDS011;9124;48.144;17.098;2024-03-02T14:06:15;35.35;;;30.15;;
17997;SDS011;9124;48.144;17.098;2024-03-02T14:10:42;34.55;;;28.60;;
17997;SDS011;9124;48.144;17.098;2024-03-02T14:15:08;37.50;;;32.75;;
17997;SDS011;9124;48.144;17.098;2024-03-02T14:19:37;32.42;;;28.65;;
17997;SDS011;9124;48.144;17.098;2024-03-02T14:24:03;29.45;;;25.25;;
17997;SDS011;9124;48.144;17.098;2024-03-02T14:28:30;31.33;;;26.60;;
17997;SDS011;9124;48.144;17.098;2024-03-02T14:32:56;28.02;;;25.13;;
17997;SDS011;9124;48.144;17.098;2024-03-02T14:37:23;29.85;;;26.90;;
17997;SDS011;9124;48.144;17.098;2024-03-02T14:41:49;29.55;;;26.63;;
17997;SDS011;9124;48.144;17.098;2024-03-02T14:46:16;27.75;;;25.02;;
17997;SDS011;9124;48.144;17.098;2024-03-02T14:50:42;23.17;;;20.58;;
17997;SDS011;9124;48.144;17.098;2024-03-02T14:55:09;26.05;;;22.90;;
17997;SDS011;9124;48.144;17.098;2024-03-02T14:59:36;26.50;;;23.85;;
17997;SDS011;9124;48.144;17.098;2024-03-02T15:04:03;28.17;;;25.27;;
17997;SDS011;9124;48.144;17.098;2024-03-02T15:08:31;32.47;;;26.90;;
17997;SDS011;9124;48.144;17.098;2024-03-02T15:13:02;28.17;;;25.30;;
17997;SDS011;9124;48.144;17.098;2024-03-02T15:17:29;27.58;;;24.85;;
17997;SDS011;9124;48.144;17.098;2024-03-02T15:21:56;29.83;;;26.00;;
17997;SDS011;9124;48.144;17.098;2024-03-02T15:26:24;30.95;;;27.83;;
17997;SDS011;9124;48.144;17.098;2024-03-02T15:30:50;32.42;;;28.88;;
17997;SDS011;9124;48.144;17.098;2024-03-02T15:35:17;27.90;;;25.10;;
17997;SDS011;9124;48.144;17.098;2024-03-02T15:39:43;28.40;;;25.67;;
17997;SDS011;9124;48.144;17.098;2024-03-02T15:44:10;29.73;;;25.85;;
17997;SDS011;9124;48.144;17.098;2024-03-02T15:48:36;27.45;;;24.85;;
17997;SDS011;9124;48.144;17.098;2024-03-02T15:53:03;27.75;;;25.10;;
17997;SDS011;9124;48.144;17.098;2024-03-02T15:57:32;26.63;;;24.02;;
17997;SDS011;9124;48.144;17.098;2024-03-02T16:02:02;29.75;;;26.60;;
17997;SDS011;9124;48.144;17.098;2024-03-02T16:06:29;28.42;;;25.50;;
17997;SDS011;9124;48.144;17.098;2024-03-02T16:10:56;28.73;;;25.85;;
17997;SDS011;9124;48.144;17.098;2024-03-02T16:15:22;28.85;;;25.85;;
17997;SDS011;9124;48.144;17.098;2024-03-02T16:19:50;29.20;;;26.23;;
17997;SDS011;9124;48.144;17.098;2024-03-02T16:24:16;28.05;;;24.92;;
17997;SDS011;9124;48.144;17.098;2024-03-02T16:28:43;33.00;;;29.75;;
17997;SDS011;9124;48.144;17.098;2024-03-02T16:33:09;32.47;;;29.33;;
17997;SDS011;9124;48.144;17.098;2024-03-02T16:37:36;33.03;;;29.83;;
17997;SDS011;9124;48.144;17.098;2024-03-02T16:42:02;34.28;;;30.95;;
17997;SDS011;9124;48.144;17.098;2024-03-02T16:46:29;33.22;;;29.10;;
17997;SDS011;9124;48.144;17.098;2024-03-02T16:50:55;31.88;;;28.73;;
17997;SDS011;9124;48.144;17.098;2024-03-02T16:55:23;31.45;;;28.17;;
17997;SDS011;9124;48.144;17.098;2024-03-02T16:59:50;29.90;;;26.67;;
17997;SDS011;9124;48.144;17.098;2024-03-02T17:04:16;31.80;;;28.70;;
17997;SDS011;9124;48.144;17.098;2024-03-02T17:08:44;33.13;;;29.92;;
17997;SDS011;9124;48.144;17.098;2024-03-02T17:13:10;33.40;;;29.75;;
17997;SDS011;9124;48.144;17.098;2024-03-02T17:17:40;29.25;;;26.35;;
17997;SDS011;9124;48.144;17.098;2024-03-02T17:22:06;33.03;;;29.73;;
17997;SDS011;9124;48.144;17.098;2024-03-02T17:26:33;33.75;;;29.55;;
17997;SDS011;9124;48.144;17.098;2024-03-02T17:30:59;32.60;;;29.15;;
17997;SDS011;9124;48.144;17.098;2024-03-02T17:35:26;31.05;;;27.60;;
17997;SDS011;9124;48.144;17.098;2024-03-02T17:39:52;32.85;;;29.35;;
17997;SDS011;9124;48.144;17.098;2024-03-02T17:44:20;34.25;;;30.65;;
17997;SDS011;9124;48.144;17.098;2024-03-02T17:48:46;31.05;;;27.83;;
17997;SDS011;9124;48.144;17.098;2024-03-02T17:53:13;31.48;;;28.25;;
17997;SDS011;9124;48.144;17.098;2024-03-02T17:57:40;35.88;;;31.42;;
17997;SDS011;9124;48.144;17.098;2024-03-02T18:02:06;38.28;;;32.08;;
17997;SDS011;9124;48.144;17.098;2024-03-02T18:06:33;38.90;;;34.47;;
17997;SDS011;9124;48.144;17.098;2024-03-02T18:11:00;40.47;;;32.78;;
17997;SDS011;9124;48.144;17.098;2024-03-02T18:15:27;35.42;;;31.58;;
17997;SDS011;9124;48.144;17.098;2024-03-02T18:19:53;38.05;;;33.55;;
17997;SDS011;9124;48.144;17.098;2024-03-02T18:24:20;39.75;;;33.47;;
17997;SDS011;9124;48.144;17.098;2024-03-02T18:28:48;44.42;;;36.35;;
17997;SDS011;9124;48.144;17.098;2024-03-02T18:33:18;38.03;;;34.05;;
17997;SDS011;9124;48.144;17.098;2024-03-02T18:37:44;44.63;;;38.22;;
17997;SDS011;9124;48.144;17.098;2024-03-02T18:42:11;49.53;;;41.83;;
17997;SDS011;9124;48.144;17.098;2024-03-02T18:46:37;55.05;;;42.65;;
17997;SDS011;9124;48.144;17.098;2024-03-02T18:51:05;45.78;;;37.13;;
17997;SDS011;9124;48.144;17.098;2024-03-02T18:55:32;51.17;;;41.05;;
17997;SDS011;9124;48.144;17.098;2024-03-02T19:00:00;52.03;;;40.25;;
17997;SDS011;9124;48.144;17.098;2024-03-02T19:04:27;46.88;;;39.55;;
17997;SDS011;9124;48.144;17.098;2024-03-02T19:08:54;48.25;;;39.53;;
17997;SDS011;9124;48.144;17.098;2024-03-02T19:13:20;53.15;;;41.25;;
17997;SDS011;9124;48.144;17.098;2024-03-02T19:17:50;57.15;;;43.13;;
17997;SDS011;9124;48.144;17.098;2024-03-02T19:22:17;51.70;;;38.42;;
17997;SDS011;9124;48.144;17.098;2024-03-02T19:26:49;47.70;;;40.40;;
17997;SDS011;9124;48.144;17.098;2024-03-02T19:31:15;48.88;;;40.92;;
17997;SDS011;9124;48.144;17.098;2024-03-02T19:35:42;53.95;;;40.53;;
17997;SDS011;9124;48.144;17.098;2024-03-02T19:40:09;52.45;;;40.35;;
17997;SDS011;9124;48.144;17.098;2024-03-02T19:44:36;57.40;;;44.63;;
17997;SDS011;9124;48.144;17.098;2024-03-02T19:49:03;59.60;;;44.75;;
17997;SDS011;9124;48.144;17.098;2024-03-02T19:53:31;56.78;;;40.55;;
17997;SDS011;9124;48.144;17.098;2024-03-02T19:57:58;56.90;;;42.92;;
17997;SDS011;9124;48.144;17.098;2024-03-02T20:02:24;50.10;;;40.80;;
17997;SDS011;9124;48.144;17.098;2024-03-02T20:06:53;53.28;;;41.47;;
17997;SDS011;9124;48.144;17.098;2024-03-02T20:11:19;50.90;;;40.10;;
17997;SDS011;9124;48.144;17.098;2024-03-02T20:15:47;56.63;;;41.33;;
17997;SDS011;9124;48.144;17.098;2024-03-02T20:20:13;62.25;;;46.53;;
17997;SDS011;9124;48.144;17.098;2024-03-02T20:24:41;65.50;;;43.28;;
17997;SDS011;9124;48.144;17.098;2024-03-02T20:29:08;61.40;;;43.30;;
17997;SDS011;9124;48.144;17.098;2024-03-02T20:33:35;68.40;;;46.58;;
17997;SDS011;9124;48.144;17.098;2024-03-02T20:38:02;64.97;;;44.95;;
17997;SDS011;9124;48.144;17.098;2024-03-02T20:42:29;71.53;;;42.83;;
17997;SDS011;9124;48.144;17.098;2024-03-02T20:46:55;68.78;;;45.65;;
17997;SDS011;9124;48.144;17.098;2024-03-02T20:51:23;78.72;;;47.95;;
17997;SDS011;9124;48.144;17.098;2024-03-02T20:55:54;81.18;;;49.80;;
17997;SDS011;9124;48.144;17.098;2024-03-02T21:00:20;85.53;;;48.60;;
17997;SDS011;9124;48.144;17.098;2024-03-02T21:04:49;84.10;;;49.60;;
17997;SDS011;9124;48.144;17.098;2024-03-02T21:09:15;87.53;;;52.17;;
17997;SDS011;9124;48.144;17.098;2024-03-02T21:13:42;90.60;;;54.28;;
17997;SDS011;9124;48.144;17.098;2024-03-02T21:18:09;86.78;;;52.03;;
17997;SDS011;9124;48.144;17.098;2024-03-02T21:22:38;86.93;;;52.33;;
17997;SDS011;9124;48.144;17.098;2024-03-02T21:27:06;86.55;;;52.45;;
17997;SDS011;9124;48.144;17.098;2024-03-02T21:31:33;81.30;;;51.58;;
17997;SDS011;9124;48.144;17.098;2024-03-02T21:35:59;84.45;;;48.58;;
17997;SDS011;9124;48.144;17.098;2024-03-02T21:40:26;92.50;;;54.08;;
17997;SDS011;9124;48.144;17.098;2024-03-02T21:44:52;91.68;;;55.05;;
17997;SDS011;9124;48.144;17.098;2024-03-02T21:49:19;95.70;;;54.35;;
17997;SDS011;9124;48.144;17.098;2024-03-02T21:53:45;95.13;;;53.72;;
17997;SDS011;9124;48.144;17.098;2024-03-02T21:58:12;92.32;;;55.40;;
17997;SDS011;9124;48.144;17.098;2024-03-02T22:02:38;96.13;;;53.97;;
17997;SDS011;9124;48.144;17.098;2024-03-02T22:07:04;98.78;;;55.15;;
17997;SDS011;9124;48.144;17.098;2024-03-02T22:11:30;91.50;;;53.20;;
17997;SDS011;9124;48.144;17.098;2024-03-02T22:15:57;87.25;;;51.45;;
17997;SDS011;9124;48.144;17.098;2024-03-02T22:20:23;91.30;;;54.13;;
17997;SDS011;9124;48.144;17.098;2024-03-02T22:24:51;90.78;;;54.20;;
17997;SDS011;9124;48.144;17.098;2024-03-02T22:29:17;91.32;;;53.95;;
17997;SDS011;9124;48.144;17.098;2024-03-02T22:33:45;87.75;;;53.08;;
17997;SDS011;9124;48.144;17.098;2024-03-02T22:38:11;89.88;;;53.17;;
17997;SDS011;9124;48.144;17.098;2024-03-02T22:42:40;95.78;;;58.20;;
17997;SDS011;9124;48.144;17.098;2024-03-02T22:47:06;85.97;;;53.30;;
17997;SDS011;9124;48.144;17.098;2024-03-02T22:51:33;101.78;;;56.85;;
17997;SDS011;9124;48.144;17.098;2024-03-02T22:55:59;97.00;;;56.70;;
17997;SDS011;9124;48.144;17.098;2024-03-02T23:00:25;103.20;;;57.22;;
17997;SDS011;9124;48.144;17.098;2024-03-02T23:05:13;97.93;;;56.22;;
17997;SDS011;9124;48.144;17.098;2024-03-02T23:09:40;97.32;;;56.15;;
17997;SDS011;9124;48.144;17.098;2024-03-02T23:14:08;100.40;;;57.08;;
17997;SDS011;9124;48.144;17.098;2024-03-02T23:18:36;107.70;;;60.47;;
17997;SDS011;9124;48.144;17.098;2024-03-02T23:23:02;100.70;;;59.28;;
17997;SDS011;9124;48.144;17.098;2024-03-02T23:27:30;100.85;;;59.75;;
17997;SDS011;9124;48.144;17.098;2024-03-02T23:31:56;101.13;;;60.17;;
17997;SDS011;9124;48.144;17.098;2024-03-02T23:36:22;107.53;;;60.80;;
17997;SDS011;9124;48.144;17.098;2024-03-02T23:40:48;104.28;;;59.40;;
17997;SDS011;9124;48.144;17.098;2024-03-02T23:45:34;91.03;;;50.85;;
17997;SDS011;9124;48.144;17.098;2024-03-02T23:50:00;100.65;;;58.28;;
17997;SDS011;9124;48.144;17.098;2024-03-02T23:54:28;106.22;;;58.47;;
17997;SDS011;9124;48.144;17.098;2024-03-02T23:58:57;97.55;;;57.40;;
